sensor_id;sensor_type;location;lat;lon;timestamp;temperature;humidity
9209;DHT22;4639;48.862;9.188;2023-11-21T00:01:58;9.30;99.90
9209;DHT22;4639;48.862;9.188;2023-11-21T00:04:24;9.00;99.90
9209;DHT22;4639;48.862;9.188;2023-11-21T00:06:50;9.00;99.90
9209;DHT22;4639;48.862;9.188;2023-11-21T00:09:16;9.00;99.90
9209;DHT22;4639;48.862;9.188;2023-11-21T00:11:43;9.00;99.90
9209;DHT22;4639;48.862;9.188;2023-11-21T00:14:10;9.00;99.90
9209;DHT22;4639;48.862;9.188;2023-11-21T00:16:36;9.00;99.90
9209;DHT22;4639;48.862;9.188;2023-11-21T00:19:01;9.00;99.90
9209;DHT22;4639;48.862;9.188;2023-11-21T00:21:27;9.20;99.90
9209;DHT22;4639;48.862;9.188;2023-11-21T00:23:52;9.00;99.90
9209;DHT22;4639;48.862;9.188;2023-11-21T00:26:18;8.90;99.90
9209;DHT22;4639;48.862;9.188;2023-11-21T00:28:44;9.00;99.90
9209;DHT22;4639;48.862;9.188;2023-11-21T00:31:09;9.00;99.90
9209;DHT22;4639;48.862;9.188;2023-11-21T00:33:35;9.10;99.90
9209;DHT22;4639;48.862;9.188;2023-11-21T00:36:00;9.10;99.90
9209;DHT22;4639;48.862;9.188;2023-11-21T00:38:26;9.30;99.90
9209;DHT22;4639;48.862;9.188;2023-11-21T00:40:53;9.10;99.90
9209;DHT22;4639;48.862;9.188;2023-11-21T00:43:22;9.10;99.90
9209;DHT22;4639;48.862;9.188;2023-11-21T00:45:48;9.10;99.90
9209;DHT22;4639;48.862;9.188;2023-11-21T00:48:15;9.00;99.90
9209;DHT22;4639;48.862;9.188;2023-11-21T00:50:41;9.10;99.90
9209;DHT22;4639;48.862;9.188;2023-11-21T00:53:06;9.10;99.90
9209;DHT22;4639;48.862;9.188;2023-11-21T00:55:33;9.00;99.90
9209;DHT22;4639;48.862;9.188;2023-11-21T00:57:58;9.00;99.90
9209;DHT22;4639;48.862;9.188;2023-11-21T01:00:25;9.00;99.90
9209;DHT22;4639;48.862;9.188;2023-11-21T01:02:51;9.00;99.90
9209;DHT22;4639;48.862;9.188;2023-11-21T01:05:16;9.10;99.90
9209;DHT22;4639;48.862;9.188;2023-11-21T01:07:42;9.10;99.90
9209;DHT22;4639;48.862;9.188;2023-11-21T01:10:08;9.10;99.90
9209;DHT22;4639;48.862;9.188;2023-11-21T01:12:36;9.10;99.90
9209;DHT22;4639;48.862;9.188;2023-11-21T01:15:06;9.00;99.90
9209;DHT22;4639;48.862;9.188;2023-11-21T01:17:35;9.00;99.90
9209;DHT22;4639;48.862;9.188;2023-11-21T01:20:02;9.00;99.90
9209;DHT22;4639;48.862;9.188;2023-11-21T01:22:28;9.10;99.90
9209;DHT22;4639;48.862;9.188;2023-11-21T01:24:54;9.10;99.90
9209;DHT22;4639;48.862;9.188;2023-11-21T01:27:20;9.00;99.90
9209;DHT22;4639;48.862;9.188;2023-11-21T01:29:46;9.00;99.90
9209;DHT22;4639;48.862;9.188;2023-11-21T01:32:11;9.00;99.90
9209;DHT22;4639;48.862;9.188;2023-11-21T01:34:37;9.00;99.90
9209;DHT22;4639;48.862;9.188;2023-11-21T01:37:03;9.10;99.90
9209;DHT22;4639;48.862;9.188;2023-11-21T01:39:30;9.10;99.90
9209;DHT22;4639;48.862;9.188;2023-11-21T01:41:57;9.10;99.90
9209;DHT22;4639;48.862;9.188;2023-11-21T01:44:24;9.10;99.90
9209;DHT22;4639;48.862;9.188;2023-11-21T01:46:50;9.10;99.90
9209;DHT22;4639;48.862;9.188;2023-11-21T01:49:17;9.20;99.90
9209;DHT22;4639;48.862;9.188;2023-11-21T01:51:47;9.20;99.90
9209;DHT22;4639;48.862;9.188;2023-11-21T01:54:15;9.20;99.90
9209;DHT22;4639;48.862;9.188;2023-11-21T01:56:43;9.20;99.90
9209;DHT22;4639;48.862;9.188;2023-11-21T01:59:10;9.30;99.90
9209;DHT22;4639;48.862;9.188;2023-11-21T02:01:37;9.30;99.90
9209;DHT22;4639;48.862;9.188;2023-11-21T02:04:03;9.40;99.90
9209;DHT22;4639;48.862;9.188;2023-11-21T02:06:28;9.40;99.90
9209;DHT22;4639;48.862;9.188;2023-11-21T02:08:56;9.50;99.90
9209;DHT22;4639;48.862;9.188;2023-11-21T02:11:22;9.40;99.90
9209;DHT22;4639;48.862;9.188;2023-11-21T02:13:47;9.40;99.90
9209;DHT22;4639;48.862;9.188;2023-11-21T02:16:15;9.40;99.90
9209;DHT22;4639;48.862;9.188;2023-11-21T02:18:41;9.40;99.90
9209;DHT22;4639;48.862;9.188;2023-11-21T02:21:07;9.40;99.90
9209;DHT22;4639;48.862;9.188;2023-11-21T02:23:33;9.50;99.90
9209;DHT22;4639;48.862;9.188;2023-11-21T02:25:59;9.50;99.90
9209;DHT22;4639;48.862;9.188;2023-11-21T02:28:29;9.50;99.90
9209;DHT22;4639;48.862;9.188;2023-11-21T02:30:55;9.60;99.90
9209;DHT22;4639;48.862;9.188;2023-11-21T02:33:22;9.70;99.90
9209;DHT22;4639;48.862;9.188;2023-11-21T02:35:48;9.70;99.90
9209;DHT22;4639;48.862;9.188;2023-11-21T02:38:13;9.70;99.90
9209;DHT22;4639;48.862;9.188;2023-11-21T02:40:39;9.80;99.90
9209;DHT22;4639;48.862;9.188;2023-11-21T02:43:05;9.80;99.90
9209;DHT22;4639;48.862;9.188;2023-11-21T02:45:31;9.80;99.90
9209;DHT22;4639;48.862;9.188;2023-11-21T02:47:57;9.80;99.90
9209;DHT22;4639;48.862;9.188;2023-11-21T02:50:23;9.80;99.90
9209;DHT22;4639;48.862;9.188;2023-11-21T02:52:49;9.80;99.90
9209;DHT22;4639;48.862;9.188;2023-11-21T02:55:14;9.80;99.90
9209;DHT22;4639;48.862;9.188;2023-11-21T02:57:40;9.70;99.90
9209;DHT22;4639;48.862;9.188;2023-11-21T03:00:06;9.70;99.90
9209;DHT22;4639;48.862;9.188;2023-11-21T03:02:33;9.70;99.90
9209;DHT22;4639;48.862;9.188;2023-11-21T03:05:02;9.70;99.90
9209;DHT22;4639;48.862;9.188;2023-11-21T03:07:27;9.60;99.90
9209;DHT22;4639;48.862;9.188;2023-11-21T03:09:53;9.50;99.90
9209;DHT22;4639;48.862;9.188;2023-11-21T03:12:19;9.50;99.90
9209;DHT22;4639;48.862;9.188;2023-11-21T03:14:45;9.50;99.90
9209;DHT22;4639;48.862;9.188;2023-11-21T03:17:10;9.40;99.90
9209;DHT22;4639;48.862;9.188;2023-11-21T03:19:37;9.40;99.90
9209;DHT22;4639;48.862;9.188;2023-11-21T03:22:03;9.50;99.90
9209;DHT22;4639;48.862;9.188;2023-11-21T03:24:29;9.60;99.90
9209;DHT22;4639;48.862;9.188;2023-11-21T03:26:55;9.60;99.90
9209;DHT22;4639;48.862;9.188;2023-11-21T03:29:21;9.70;99.90
9209;DHT22;4639;48.862;9.188;2023-11-21T03:31:47;9.70;99.90
9209;DHT22;4639;48.862;9.188;2023-11-21T03:34:22;9.80;99.90
9209;DHT22;4639;48.862;9.188;2023-11-21T03:36:48;9.80;99.90
9209;DHT22;4639;48.862;9.188;2023-11-21T03:39:14;9.80;99.90
9209;DHT22;4639;48.862;9.188;2023-11-21T03:41:39;9.80;99.90
9209;DHT22;4639;48.862;9.188;2023-11-21T03:44:05;9.80;99.90
9209;DHT22;4639;48.862;9.188;2023-11-21T03:46:30;9.80;99.90
9209;DHT22;4639;48.862;9.188;2023-11-21T03:48:56;9.80;99.90
9209;DHT22;4639;48.862;9.188;2023-11-21T03:51:21;9.80;99.90
9209;DHT22;4639;48.862;9.188;2023-11-21T03:53:47;9.80;99.90
9209;DHT22;4639;48.862;9.188;2023-11-21T03:56:14;9.80;99.90
9209;DHT22;4639;48.862;9.188;2023-11-21T03:58:39;9.80;99.90
9209;DHT22;4639;48.862;9.188;2023-11-21T04:01:05;9.70;99.90
9209;DHT22;4639;48.862;9.188;2023-11-21T04:03:31;9.60;99.90
9209;DHT22;4639;48.862;9.188;2023-11-21T04:05:56;9.60;99.90
9209;DHT22;4639;48.862;9.188;2023-11-21T04:08:22;9.40;99.90
9209;DHT22;4639;48.862;9.188;2023-11-21T04:10:47;9.40;99.90
9209;DHT22;4639;48.862;9.188;2023-11-21T04:13:14;9.40;99.90
9209;DHT22;4639;48.862;9.188;2023-11-21T04:15:39;9.30;99.90
9209;DHT22;4639;48.862;9.188;2023-11-21T04:18:05;9.30;99.90
9209;DHT22;4639;48.862;9.188;2023-11-21T04:20:30;9.30;99.90
9209;DHT22;4639;48.862;9.188;2023-11-21T04:22:56;9.20;99.90
9209;DHT22;4639;48.862;9.188;2023-11-21T04:25:21;9.20;99.90
9209;DHT22;4639;48.862;9.188;2023-11-21T04:27:48;9.30;99.90
9209;DHT22;4639;48.862;9.188;2023-11-21T04:30:14;9.20;99.90
9209;DHT22;4639;48.862;9.188;2023-11-21T04:32:41;9.20;99.90
9209;DHT22;4639;48.862;9.188;2023-11-21T04:35:07;9.20;99.90
9209;DHT22;4639;48.862;9.188;2023-11-21T04:37:34;9.30;99.90
9209;DHT22;4639;48.862;9.188;2023-11-21T04:39:59;9.20;99.90
9209;DHT22;4639;48.862;9.188;2023-11-21T04:42:25;9.20;99.90
9209;DHT22;4639;48.862;9.188;2023-11-21T04:44:50;9.20;99.90
9209;DHT22;4639;48.862;9.188;2023-11-21T04:47:18;9.20;99.90
9209;DHT22;4639;48.862;9.188;2023-11-21T04:49:46;9.30;99.90
9209;DHT22;4639;48.862;9.188;2023-11-21T04:52:14;9.30;99.90
9209;DHT22;4639;48.862;9.188;2023-11-21T04:54:40;9.40;99.90
9209;DHT22;4639;48.862;9.188;2023-11-21T04:57:06;9.40;99.90
9209;DHT22;4639;48.862;9.188;2023-11-21T04:59:33;9.40;99.90
9209;DHT22;4639;48.862;9.188;2023-11-21T05:01:58;9.40;99.90
9209;DHT22;4639;48.862;9.188;2023-11-21T05:04:25;9.50;99.90
9209;DHT22;4639;48.862;9.188;2023-11-21T05:06:51;9.50;99.90
9209;DHT22;4639;48.862;9.188;2023-11-21T05:09:16;9.50;99.90
9209;DHT22;4639;48.862;9.188;2023-11-21T05:11:43;9.50;99.90
9209;DHT22;4639;48.862;9.188;2023-11-21T05:14:08;9.50;99.90
9209;DHT22;4639;48.862;9.188;2023-11-21T05:16:34;9.50;99.90
9209;DHT22;4639;48.862;9.188;2023-11-21T05:19:00;9.50;99.90
9209;DHT22;4639;48.862;9.188;2023-11-21T05:21:27;9.50;99.90
9209;DHT22;4639;48.862;9.188;2023-11-21T05:23:52;9.50;99.90
9209;DHT22;4639;48.862;9.188;2023-11-21T05:26:18;9.50;99.90
9209;DHT22;4639;48.862;9.188;2023-11-21T05:28:44;9.40;99.90
9209;DHT22;4639;48.862;9.188;2023-11-21T05:31:09;9.40;99.90
9209;DHT22;4639;48.862;9.188;2023-11-21T05:33:36;9.40;99.90
9209;DHT22;4639;48.862;9.188;2023-11-21T05:36:02;9.40;99.90
9209;DHT22;4639;48.862;9.188;2023-11-21T05:38:28;9.30;99.90
9209;DHT22;4639;48.862;9.188;2023-11-21T05:40:53;9.40;99.90
9209;DHT22;4639;48.862;9.188;2023-11-21T05:43:19;9.30;99.90
9209;DHT22;4639;48.862;9.188;2023-11-21T05:45:45;9.30;99.90
9209;DHT22;4639;48.862;9.188;2023-11-21T05:48:10;9.30;99.90
9209;DHT22;4639;48.862;9.188;2023-11-21T05:50:36;9.30;99.90
9209;DHT22;4639;48.862;9.188;2023-11-21T05:53:03;9.30;99.90
9209;DHT22;4639;48.862;9.188;2023-11-21T05:55:29;9.30;99.90
9209;DHT22;4639;48.862;9.188;2023-11-21T05:57:54;9.30;99.90
9209;DHT22;4639;48.862;9.188;2023-11-21T06:00:20;9.40;99.90
9209;DHT22;4639;48.862;9.188;2023-11-21T06:02:48;9.30;99.90
9209;DHT22;4639;48.862;9.188;2023-11-21T06:05:17;9.30;99.90
9209;DHT22;4639;48.862;9.188;2023-11-21T06:07:43;9.30;99.90
9209;DHT22;4639;48.862;9.188;2023-11-21T06:10:11;9.30;99.90
9209;DHT22;4639;48.862;9.188;2023-11-21T06:12:38;9.30;99.90
9209;DHT22;4639;48.862;9.188;2023-11-21T06:15:06;9.30;99.90
9209;DHT22;4639;48.862;9.188;2023-11-21T06:17:36;9.30;99.90
9209;DHT22;4639;48.862;9.188;2023-11-21T06:20:03;9.30;99.90
9209;DHT22;4639;48.862;9.188;2023-11-21T06:22:35;9.40;99.90
9209;DHT22;4639;48.862;9.188;2023-11-21T06:25:01;9.40;99.90
9209;DHT22;4639;48.862;9.188;2023-11-21T06:27:27;9.40;99.90
9209;DHT22;4639;48.862;9.188;2023-11-21T06:29:53;9.40;99.90
9209;DHT22;4639;48.862;9.188;2023-11-21T06:32:18;9.40;99.90
9209;DHT22;4639;48.862;9.188;2023-11-21T06:34:45;9.40;99.90
9209;DHT22;4639;48.862;9.188;2023-11-21T06:37:11;9.40;99.90
9209;DHT22;4639;48.862;9.188;2023-11-21T06:39:37;9.40;99.90
9209;DHT22;4639;48.862;9.188;2023-11-21T06:42:03;9.40;99.90
9209;DHT22;4639;48.862;9.188;2023-11-21T06:44:30;9.30;99.90
9209;DHT22;4639;48.862;9.188;2023-11-21T06:46:56;9.40;99.90
9209;DHT22;4639;48.862;9.188;2023-11-21T06:49:22;9.40;99.90
9209;DHT22;4639;48.862;9.188;2023-11-21T06:51:48;9.30;99.90
9209;DHT22;4639;48.862;9.188;2023-11-21T06:54:14;9.30;99.90
9209;DHT22;4639;48.862;9.188;2023-11-21T06:56:39;9.30;99.90
9209;DHT22;4639;48.862;9.188;2023-11-21T06:59:06;9.20;99.90
9209;DHT22;4639;48.862;9.188;2023-11-21T07:01:31;9.20;99.90
9209;DHT22;4639;48.862;9.188;2023-11-21T07:04:04;9.30;99.90
9209;DHT22;4639;48.862;9.188;2023-11-21T07:06:31;9.30;99.90
9209;DHT22;4639;48.862;9.188;2023-11-21T07:08:56;9.30;99.90
9209;DHT22;4639;48.862;9.188;2023-11-21T07:11:22;9.30;99.90
9209;DHT22;4639;48.862;9.188;2023-11-21T07:13:48;9.20;99.90
9209;DHT22;4639;48.862;9.188;2023-11-21T07:16:13;9.30;99.90
9209;DHT22;4639;48.862;9.188;2023-11-21T07:18:40;9.30;99.90
9209;DHT22;4639;48.862;9.188;2023-11-21T07:21:06;9.40;99.90
9209;DHT22;4639;48.862;9.188;2023-11-21T07:23:32;9.30;99.90
9209;DHT22;4639;48.862;9.188;2023-11-21T07:25:58;9.30;99.90
9209;DHT22;4639;48.862;9.188;2023-11-21T07:28:24;9.30;99.90
9209;DHT22;4639;48.862;9.188;2023-11-21T07:30:51;9.20;99.90
9209;DHT22;4639;48.862;9.188;2023-11-21T07:33:16;9.30;99.90
9209;DHT22;4639;48.862;9.188;2023-11-21T07:35:43;9.30;99.90
9209;DHT22;4639;48.862;9.188;2023-11-21T07:38:08;9.40;99.90
9209;DHT22;4639;48.862;9.188;2023-11-21T07:40:34;9.50;99.90
9209;DHT22;4639;48.862;9.188;2023-11-21T07:42:59;9.70;99.90
9209;DHT22;4639;48.862;9.188;2023-11-21T07:45:25;9.60;99.90
9209;DHT22;4639;48.862;9.188;2023-11-21T07:47:53;9.60;99.90
9209;DHT22;4639;48.862;9.188;2023-11-21T07:50:20;9.60;99.90
9209;DHT22;4639;48.862;9.188;2023-11-21T07:52:46;9.70;99.90
9209;DHT22;4639;48.862;9.188;2023-11-21T07:55:11;9.60;99.90
9209;DHT22;4639;48.862;9.188;2023-11-21T07:57:37;9.70;99.90
9209;DHT22;4639;48.862;9.188;2023-11-21T08:00:04;9.70;99.90
9209;DHT22;4639;48.862;9.188;2023-11-21T08:02:34;9.70;99.90
9209;DHT22;4639;48.862;9.188;2023-11-21T08:05:00;9.70;99.90
9209;DHT22;4639;48.862;9.188;2023-11-21T08:07:26;9.80;99.90
9209;DHT22;4639;48.862;9.188;2023-11-21T08:09:51;9.90;99.90
9209;DHT22;4639;48.862;9.188;2023-11-21T08:12:18;9.90;99.90
9209;DHT22;4639;48.862;9.188;2023-11-21T08:14:45;9.90;99.90
9209;DHT22;4639;48.862;9.188;2023-11-21T08:17:11;9.90;99.90
9209;DHT22;4639;48.862;9.188;2023-11-21T08:19:36;10.00;99.90
9209;DHT22;4639;48.862;9.188;2023-11-21T08:22:03;9.90;99.90
9209;DHT22;4639;48.862;9.188;2023-11-21T08:24:29;9.90;99.90
9209;DHT22;4639;48.862;9.188;2023-11-21T08:26:55;9.90;99.90
9209;DHT22;4639;48.862;9.188;2023-11-21T08:29:21;10.00;99.90
9209;DHT22;4639;48.862;9.188;2023-11-21T08:31:48;10.10;99.90
9209;DHT22;4639;48.862;9.188;2023-11-21T08:34:14;10.20;99.90
9209;DHT22;4639;48.862;9.188;2023-11-21T08:36:43;10.10;99.90
9209;DHT22;4639;48.862;9.188;2023-11-21T08:39:08;10.00;99.90
9209;DHT22;4639;48.862;9.188;2023-11-21T08:41:35;10.10;99.90
9209;DHT22;4639;48.862;9.188;2023-11-21T08:44:02;10.20;99.90
9209;DHT22;4639;48.862;9.188;2023-11-21T08:46:32;10.30;99.90
9209;DHT22;4639;48.862;9.188;2023-11-21T08:49:00;10.40;99.90
9209;DHT22;4639;48.862;9.188;2023-11-21T08:51:26;10.50;99.90
9209;DHT22;4639;48.862;9.188;2023-11-21T08:53:52;10.50;99.90
9209;DHT22;4639;48.862;9.188;2023-11-21T08:56:18;10.50;99.90
9209;DHT22;4639;48.862;9.188;2023-11-21T08:58:45;10.50;99.90
9209;DHT22;4639;48.862;9.188;2023-11-21T09:01:12;10.50;99.90
9209;DHT22;4639;48.862;9.188;2023-11-21T09:03:38;10.60;99.90
9209;DHT22;4639;48.862;9.188;2023-11-21T09:06:04;10.60;99.90
9209;DHT22;4639;48.862;9.188;2023-11-21T09:08:30;10.60;99.90
9209;DHT22;4639;48.862;9.188;2023-11-21T09:10:55;10.70;99.90
9209;DHT22;4639;48.862;9.188;2023-11-21T09:13:21;10.80;99.90
9209;DHT22;4639;48.862;9.188;2023-11-21T09:15:46;10.80;99.90
9209;DHT22;4639;48.862;9.188;2023-11-21T09:18:15;10.80;99.90
9209;DHT22;4639;48.862;9.188;2023-11-21T09:20:41;10.80;99.90
9209;DHT22;4639;48.862;9.188;2023-11-21T09:23:09;10.70;99.90
9209;DHT22;4639;48.862;9.188;2023-11-21T09:25:35;10.70;99.90
9209;DHT22;4639;48.862;9.188;2023-11-21T09:28:01;10.70;99.90
9209;DHT22;4639;48.862;9.188;2023-11-21T09:30:26;10.70;99.90
9209;DHT22;4639;48.862;9.188;2023-11-21T09:32:52;10.70;99.90
9209;DHT22;4639;48.862;9.188;2023-11-21T09:35:18;10.50;99.90
9209;DHT22;4639;48.862;9.188;2023-11-21T09:37:46;10.50;99.90
9209;DHT22;4639;48.862;9.188;2023-11-21T09:40:12;10.40;99.90
9209;DHT22;4639;48.862;9.188;2023-11-21T09:42:40;10.40;99.90
9209;DHT22;4639;48.862;9.188;2023-11-21T09:47:43;10.30;99.90
9209;DHT22;4639;48.862;9.188;2023-11-21T09:50:09;10.30;99.90
9209;DHT22;4639;48.862;9.188;2023-11-21T09:55:25;10.10;99.90
9209;DHT22;4639;48.862;9.188;2023-11-21T09:57:53;10.10;99.90
9209;DHT22;4639;48.862;9.188;2023-11-21T10:00:21;10.10;99.90
9209;DHT22;4639;48.862;9.188;2023-11-21T10:02:49;10.10;99.90
9209;DHT22;4639;48.862;9.188;2023-11-21T10:05:15;10.10;99.90
9209;DHT22;4639;48.862;9.188;2023-11-21T10:07:43;10.20;99.90
9209;DHT22;4639;48.862;9.188;2023-11-21T10:10:10;10.20;99.90
9209;DHT22;4639;48.862;9.188;2023-11-21T10:12:36;10.00;99.90
9209;DHT22;4639;48.862;9.188;2023-11-21T10:15:07;9.70;99.90
9209;DHT22;4639;48.862;9.188;2023-11-21T10:17:36;9.70;99.90
9209;DHT22;4639;48.862;9.188;2023-11-21T10:20:10;9.80;99.90
9209;DHT22;4639;48.862;9.188;2023-11-21T10:22:40;9.80;99.90
9209;DHT22;4639;48.862;9.188;2023-11-21T10:25:08;9.90;99.90
9209;DHT22;4639;48.862;9.188;2023-11-21T10:27:34;10.10;99.90
9209;DHT22;4639;48.862;9.188;2023-11-21T10:30:03;10.10;99.90
9209;DHT22;4639;48.862;9.188;2023-11-21T10:32:32;10.10;99.90
9209;DHT22;4639;48.862;9.188;2023-11-21T10:34:58;10.10;99.90
9209;DHT22;4639;48.862;9.188;2023-11-21T10:37:32;10.10;99.90
9209;DHT22;4639;48.862;9.188;2023-11-21T10:39:58;10.20;99.90
9209;DHT22;4639;48.862;9.188;2023-11-21T10:42:24;10.10;99.90
9209;DHT22;4639;48.862;9.188;2023-11-21T10:44:50;10.20;99.90
9209;DHT22;4639;48.862;9.188;2023-11-21T10:47:16;10.40;99.90
9209;DHT22;4639;48.862;9.188;2023-11-21T10:49:44;10.40;99.90
9209;DHT22;4639;48.862;9.188;2023-11-21T10:52:13;10.30;99.90
9209;DHT22;4639;48.862;9.188;2023-11-21T10:54:43;10.30;99.90
9209;DHT22;4639;48.862;9.188;2023-11-21T10:57:10;10.30;99.90
9209;DHT22;4639;48.862;9.188;2023-11-21T10:59:36;10.30;99.90
9209;DHT22;4639;48.862;9.188;2023-11-21T11:02:13;10.30;99.90
9209;DHT22;4639;48.862;9.188;2023-11-21T11:04:42;10.30;99.90
9209;DHT22;4639;48.862;9.188;2023-11-21T11:07:08;10.40;99.90
9209;DHT22;4639;48.862;9.188;2023-11-21T11:09:37;10.50;99.90
9209;DHT22;4639;48.862;9.188;2023-11-21T11:12:03;10.50;99.90
9209;DHT22;4639;48.862;9.188;2023-11-21T11:14:32;10.70;99.90
9209;DHT22;4639;48.862;9.188;2023-11-21T11:16:58;10.80;99.90
9209;DHT22;4639;48.862;9.188;2023-11-21T11:19:25;10.60;99.90
9209;DHT22;4639;48.862;9.188;2023-11-21T11:25:14;10.70;99.90
9209;DHT22;4639;48.862;9.188;2023-11-21T11:28:07;10.70;99.90
9209;DHT22;4639;48.862;9.188;2023-11-21T11:33:43;10.60;99.90
9209;DHT22;4639;48.862;9.188;2023-11-21T11:41:56;10.40;99.90
9209;DHT22;4639;48.862;9.188;2023-11-21T11:47:31;10.40;99.90
9209;DHT22;4639;48.862;9.188;2023-11-21T11:50:10;10.50;99.90
9209;DHT22;4639;48.862;9.188;2023-11-21T11:52:42;10.50;99.90
9209;DHT22;4639;48.862;9.188;2023-11-21T11:55:15;10.50;99.90
9209;DHT22;4639;48.862;9.188;2023-11-21T11:57:54;10.50;99.90
9209;DHT22;4639;48.862;9.188;2023-11-21T12:02:56;10.60;99.90
9209;DHT22;4639;48.862;9.188;2023-11-21T12:05:27;10.50;99.90
9209;DHT22;4639;48.862;9.188;2023-11-21T12:07:54;10.30;99.90
9209;DHT22;4639;48.862;9.188;2023-11-21T12:10:22;10.30;99.90
9209;DHT22;4639;48.862;9.188;2023-11-21T12:15:18;10.50;99.90
9209;DHT22;4639;48.862;9.188;2023-11-21T12:17:44;10.60;99.90
9209;DHT22;4639;48.862;9.188;2023-11-21T12:20:13;10.90;99.90
9209;DHT22;4639;48.862;9.188;2023-11-21T12:22:57;11.10;99.90
9209;DHT22;4639;48.862;9.188;2023-11-21T12:25:28;11.20;99.90
9209;DHT22;4639;48.862;9.188;2023-11-21T12:27:55;11.60;99.90
9209;DHT22;4639;48.862;9.188;2023-11-21T12:30:24;11.40;99.90
9209;DHT22;4639;48.862;9.188;2023-11-21T12:32:52;11.40;99.90
9209;DHT22;4639;48.862;9.188;2023-11-21T12:35:19;11.50;99.90
9209;DHT22;4639;48.862;9.188;2023-11-21T12:37:45;11.60;99.90
9209;DHT22;4639;48.862;9.188;2023-11-21T12:40:12;11.60;99.90
9209;DHT22;4639;48.862;9.188;2023-11-21T12:42:52;11.50;99.90
9209;DHT22;4639;48.862;9.188;2023-11-21T12:45:19;11.70;99.90
9209;DHT22;4639;48.862;9.188;2023-11-21T12:50:12;11.40;99.90
9209;DHT22;4639;48.862;9.188;2023-11-21T12:52:41;11.40;99.90
9209;DHT22;4639;48.862;9.188;2023-11-21T12:55:08;11.50;99.90
9209;DHT22;4639;48.862;9.188;2023-11-21T12:57:35;11.40;99.90
9209;DHT22;4639;48.862;9.188;2023-11-21T13:00:04;11.30;99.90
9209;DHT22;4639;48.862;9.188;2023-11-21T13:02:37;11.10;99.90
9209;DHT22;4639;48.862;9.188;2023-11-21T13:05:04;11.00;99.90
9209;DHT22;4639;48.862;9.188;2023-11-21T13:07:44;10.90;99.90
9209;DHT22;4639;48.862;9.188;2023-11-21T13:10:12;10.70;99.90
9209;DHT22;4639;48.862;9.188;2023-11-21T13:12:46;10.70;99.90
9209;DHT22;4639;48.862;9.188;2023-11-21T13:15:17;10.60;99.90
9209;DHT22;4639;48.862;9.188;2023-11-21T13:17:43;10.50;99.90
9209;DHT22;4639;48.862;9.188;2023-11-21T13:20:13;10.40;99.90
9209;DHT22;4639;48.862;9.188;2023-11-21T13:22:57;10.30;99.90
9209;DHT22;4639;48.862;9.188;2023-11-21T13:25:25;10.30;99.90
9209;DHT22;4639;48.862;9.188;2023-11-21T13:27:53;10.30;99.90
9209;DHT22;4639;48.862;9.188;2023-11-21T13:30:19;10.30;99.90
9209;DHT22;4639;48.862;9.188;2023-11-21T13:32:52;10.30;99.90
9209;DHT22;4639;48.862;9.188;2023-11-21T13:35:18;10.20;99.90
9209;DHT22;4639;48.862;9.188;2023-11-21T13:37:56;10.20;99.90
9209;DHT22;4639;48.862;9.188;2023-11-21T13:40:24;10.20;99.90
9209;DHT22;4639;48.862;9.188;2023-11-21T13:42:56;10.20;99.90
9209;DHT22;4639;48.862;9.188;2023-11-21T13:45:25;10.10;99.90
9209;DHT22;4639;48.862;9.188;2023-11-21T13:47:53;10.20;99.90
9209;DHT22;4639;48.862;9.188;2023-11-21T13:50:23;10.30;99.90
9209;DHT22;4639;48.862;9.188;2023-11-21T13:52:52;10.30;99.90
9209;DHT22;4639;48.862;9.188;2023-11-21T13:55:19;10.40;99.90
9209;DHT22;4639;48.862;9.188;2023-11-21T13:57:45;10.30;99.90
9209;DHT22;4639;48.862;9.188;2023-11-21T14:00:15;10.20;99.90
9209;DHT22;4639;48.862;9.188;2023-11-21T14:03:00;10.20;99.90
9209;DHT22;4639;48.862;9.188;2023-11-21T14:05:29;10.20;99.90
9209;DHT22;4639;48.862;9.188;2023-11-21T14:07:58;10.20;99.90
9209;DHT22;4639;48.862;9.188;2023-11-21T14:10:32;10.20;99.90
9209;DHT22;4639;48.862;9.188;2023-11-21T14:13:09;10.10;99.90
9209;DHT22;4639;48.862;9.188;2023-11-21T14:15:39;10.20;99.90
9209;DHT22;4639;48.862;9.188;2023-11-21T14:18:08;10.20;99.90
9209;DHT22;4639;48.862;9.188;2023-11-21T14:20:39;10.20;99.90
9209;DHT22;4639;48.862;9.188;2023-11-21T14:23:06;10.30;99.90
9209;DHT22;4639;48.862;9.188;2023-11-21T14:25:36;10.30;99.90
9209;DHT22;4639;48.862;9.188;2023-11-21T14:28:07;10.40;99.90
9209;DHT22;4639;48.862;9.188;2023-11-21T14:30:33;10.30;99.90
9209;DHT22;4639;48.862;9.188;2023-11-21T14:33:02;10.30;99.90
9209;DHT22;4639;48.862;9.188;2023-11-21T14:35:27;10.40;99.90
9209;DHT22;4639;48.862;9.188;2023-11-21T14:37:55;10.30;99.90
9209;DHT22;4639;48.862;9.188;2023-11-21T14:40:21;10.30;99.90
9209;DHT22;4639;48.862;9.188;2023-11-21T14:42:52;10.30;99.90
9209;DHT22;4639;48.862;9.188;2023-11-21T14:45:19;10.30;99.90
9209;DHT22;4639;48.862;9.188;2023-11-21T14:47:48;10.30;99.90
9209;DHT22;4639;48.862;9.188;2023-11-21T14:50:34;10.40;99.90
9209;DHT22;4639;48.862;9.188;2023-11-21T14:53:11;10.30;99.90
9209;DHT22;4639;48.862;9.188;2023-11-21T14:55:39;10.30;99.90
9209;DHT22;4639;48.862;9.188;2023-11-21T14:58:05;10.40;99.90
9209;DHT22;4639;48.862;9.188;2023-11-21T15:00:30;10.40;99.90
9209;DHT22;4639;48.862;9.188;2023-11-21T15:02:59;10.50;99.90
9209;DHT22;4639;48.862;9.188;2023-11-21T15:05:25;10.40;99.90
9209;DHT22;4639;48.862;9.188;2023-11-21T15:07:53;10.50;99.90
9209;DHT22;4639;48.862;9.188;2023-11-21T15:10:22;10.40;99.90
9209;DHT22;4639;48.862;9.188;2023-11-21T15:12:54;10.30;99.90
9209;DHT22;4639;48.862;9.188;2023-11-21T15:15:20;10.30;99.90
9209;DHT22;4639;48.862;9.188;2023-11-21T15:17:46;10.10;99.90
9209;DHT22;4639;48.862;9.188;2023-11-21T15:20:13;10.10;99.90
9209;DHT22;4639;48.862;9.188;2023-11-21T15:22:44;10.10;99.90
9209;DHT22;4639;48.862;9.188;2023-11-21T15:25:10;10.10;99.90
9209;DHT22;4639;48.862;9.188;2023-11-21T15:27:36;10.00;99.90
9209;DHT22;4639;48.862;9.188;2023-11-21T15:30:02;10.00;99.90
9209;DHT22;4639;48.862;9.188;2023-11-21T15:32:29;10.00;99.90
9209;DHT22;4639;48.862;9.188;2023-11-21T15:34:54;10.00;99.90
9209;DHT22;4639;48.862;9.188;2023-11-21T15:37:20;10.00;99.90
9209;DHT22;4639;48.862;9.188;2023-11-21T15:39:45;10.00;99.90
9209;DHT22;4639;48.862;9.188;2023-11-21T15:42:12;10.00;99.90
9209;DHT22;4639;48.862;9.188;2023-11-21T15:44:37;10.00;99.90
9209;DHT22;4639;48.862;9.188;2023-11-21T15:47:04;10.00;99.90
9209;DHT22;4639;48.862;9.188;2023-11-21T15:49:31;10.00;99.90
9209;DHT22;4639;48.862;9.188;2023-11-21T15:51:59;10.00;99.90
9209;DHT22;4639;48.862;9.188;2023-11-21T15:54:26;10.00;99.90
9209;DHT22;4639;48.862;9.188;2023-11-21T15:56:54;10.00;99.90
9209;DHT22;4639;48.862;9.188;2023-11-21T15:59:24;9.90;99.90
9209;DHT22;4639;48.862;9.188;2023-11-21T16:01:54;9.90;99.90
9209;DHT22;4639;48.862;9.188;2023-11-21T16:04:20;9.90;99.90
9209;DHT22;4639;48.862;9.188;2023-11-21T16:06:47;9.90;99.90
9209;DHT22;4639;48.862;9.188;2023-11-21T16:09:16;9.90;99.90
9209;DHT22;4639;48.862;9.188;2023-11-21T16:11:57;9.90;99.90
9209;DHT22;4639;48.862;9.188;2023-11-21T16:14:28;9.90;99.90
9209;DHT22;4639;48.862;9.188;2023-11-21T16:17:03;9.90;99.90
9209;DHT22;4639;48.862;9.188;2023-11-21T16:19:29;9.80;99.90
9209;DHT22;4639;48.862;9.188;2023-11-21T16:21:54;9.80;99.90
9209;DHT22;4639;48.862;9.188;2023-11-21T16:24:20;9.80;99.90
9209;DHT22;4639;48.862;9.188;2023-11-21T16:26:46;9.80;99.90
9209;DHT22;4639;48.862;9.188;2023-11-21T16:29:12;9.70;99.90
9209;DHT22;4639;48.862;9.188;2023-11-21T16:31:39;9.70;99.90
9209;DHT22;4639;48.862;9.188;2023-11-21T16:34:12;9.60;99.90
9209;DHT22;4639;48.862;9.188;2023-11-21T16:36:41;9.70;99.90
9209;DHT22;4639;48.862;9.188;2023-11-21T16:39:08;9.60;99.90
9209;DHT22;4639;48.862;9.188;2023-11-21T16:41:35;9.60;99.90